Time;durP1;ratioP1;P1;durP2;ratioP2;P2;SDS_P1;SDS_P2;PMS_P1;PMS_P2;Temp;Humidity;BMP_temperature;BMP_pressure;BME280_temperature;BME280_humidity;BME280_pressure;Samples;Min_cycle;Max_cycle;Signal;HPM_P1;HPM_P2
2023/04/28 00:01:33;;;;;;;11.83;3.97;;;;;;;;;;5057245;28;20037;-80
2023/04/28 00:03:59;;;;;;;8.33;3.80;;;;;;;;;;5055828;28;20048;-81
2023/04/28 00:06:27;;;;;;;9.50;3.60;;;;;;;;;;5053974;28;20025;-79
2023/04/28 00:08:53;;;;;;;9.20;3.27;;;;;;;;;;5056621;28;20026;-79
2023/04/28 00:11:22;;;;;;;10.63;3.73;;;;;;;;;;5056225;28;20040;-79
2023/04/28 00:13:48;;;;;;;9.67;4.03;;;;;;;;;;5056296;28;20033;-79
2023/04/28 00:16:15;;;;;;;7.63;3.60;;;;;;;;;;5055256;28;20037;-80
2023/04/28 00:18:43;;;;;;;11.57;4.07;;;;;;;;;;5053078;28;20040;-79
2023/04/28 00:21:09;;;;;;;9.73;5.27;;;;;;;;;;5052844;28;20041;-79
2023/04/28 00:23:37;;;;;;;10.43;4.83;;;;;;;;;;5053850;28;20048;-80
2023/04/28 00:26:03;;;;;;;11.17;4.07;;;;;;;;;;5054027;28;20029;-79
2023/04/28 00:28:32;;;;;;;10.40;3.93;;;;;;;;;;5056922;28;20033;-79
2023/04/28 00:30:58;;;;;;;7.47;3.50;;;;;;;;;;5055622;28;20045;-81
2023/04/28 00:33:26;;;;;;;8.03;3.97;;;;;;;;;;5053427;28;20052;-78
2023/04/28 00:35:58;;;;;;;9.60;4.57;;;;;;;;;;5053961;28;20033;-79
2023/04/28 00:38:24;;;;;;;11.32;4.00;;;;;;;;;;5056740;28;20096;-80
2023/04/28 00:40:50;;;;;;;7.73;3.40;;;;;;;;;;5058530;28;20033;-80
2023/04/28 00:43:17;;;;;;;12.53;3.90;;;;;;;;;;5058892;28;20025;-82
2023/04/28 00:45:43;;;;;;;10.27;4.00;;;;;;;;;;5059590;28;20084;-80
2023/04/28 00:48:09;;;;;;;7.77;3.57;;;;;;;;;;5057585;28;20014;-80
2023/04/28 00:50:36;;;;;;;8.77;3.83;;;;;;;;;;5057296;28;20159;-80
2023/04/28 00:53:06;;;;;;;12.27;3.50;;;;;;;;;;5057997;28;20034;-82
2023/04/28 00:55:42;;;;;;;8.77;4.03;;;;;;;;;;5058031;28;20049;-80
2023/04/28 00:58:09;;;;;;;11.17;3.70;;;;;;;;;;5058009;28;20033;-79
2023/04/28 01:00:35;;;;;;;12.37;4.03;;;;;;;;;;5058770;28;20014;-79
2023/04/28 01:03:10;;;;;;;8.23;3.67;;;;;;;;;;5058182;28;20052;-80
2023/04/28 01:05:36;;;;;;;12.10;3.70;;;;;;;;;;5057604;28;20099;-80
2023/04/28 01:08:03;;;;;;;8.37;3.83;;;;;;;;;;5057778;28;20053;-79
2023/04/28 01:10:29;;;;;;;9.93;4.83;;;;;;;;;;5060200;28;20010;-80
2023/04/28 01:12:55;;;;;;;11.00;4.60;;;;;;;;;;5056928;28;20191;-80
2023/04/28 01:15:21;;;;;;;7.77;3.97;;;;;;;;;;5054890;28;20026;-79
2023/04/28 01:17:47;;;;;;;12.67;5.10;;;;;;;;;;5051273;28;20013;-80
2023/04/28 01:20:14;;;;;;;10.50;5.47;;;;;;;;;;5050215;28;20054;-80
2023/04/28 01:22:40;;;;;;;9.20;5.63;;;;;;;;;;5049129;28;20095;-79
2023/04/28 01:25:06;;;;;;;12.80;6.97;;;;;;;;;;5051310;28;20049;-79
2023/04/28 01:27:32;;;;;;;16.77;7.10;;;;;;;;;;5048936;28;20010;-79
2023/04/28 01:29:58;;;;;;;15.50;6.07;;;;;;;;;;5050952;28;20013;-79
2023/04/28 01:32:29;;;;;;;12.10;6.03;;;;;;;;;;5051540;28;20026;-79
2023/04/28 01:34:56;;;;;;;14.83;6.67;;;;;;;;;;5050488;28;20042;-79
2023/04/28 01:37:29;;;;;;;11.90;7.20;;;;;;;;;;5051597;28;20025;-80
2023/04/28 01:39:55;;;;;;;12.77;6.57;;;;;;;;;;5050530;28;20036;-78
2023/04/28 01:42:21;;;;;;;9.10;6.00;;;;;;;;;;5193376;23;20055;-78
2023/04/28 01:44:50;;;;;;;21.57;7.10;;;;;;;;;;5054299;28;20045;-81
2023/04/28 01:47:19;;;;;;;9.60;5.70;;;;;;;;;;5074391;28;20021;-78
2023/04/28 01:49:47;;;;;;;16.10;7.40;;;;;;;;;;5056095;28;20032;-79
2023/04/28 01:52:13;;;;;;;12.80;7.47;;;;;;;;;;5057619;28;20020;-78
2023/04/28 01:57:42;;;;;;;10.30;6.23;;;;;;;;;;5075254;28;20032;-79
2023/04/28 02:00:09;;;;;;;12.37;7.57;;;;;;;;;;5073711;28;20025;-79
2023/04/28 02:02:37;;;;;;;14.10;6.83;;;;;;;;;;5059830;28;20052;-81
2023/04/28 02:05:06;;;;;;;14.70;7.37;;;;;;;;;;5072514;28;20100;-80
2023/04/28 02:07:32;;;;;;;13.07;8.10;;;;;;;;;;5055320;28;20021;-77
2023/04/28 02:10:00;;;;;;;13.13;7.43;;;;;;;;;;5052760;28;20095;-81
2023/04/28 02:12:29;;;;;;;13.00;7.33;;;;;;;;;;5073748;28;20089;-80
2023/04/28 02:14:55;;;;;;;17.77;8.60;;;;;;;;;;5058374;28;20043;-81
2023/04/28 02:17:21;;;;;;;18.83;8.93;;;;;;;;;;5072261;28;20037;-81
2023/04/28 02:19:56;;;;;;;19.33;9.53;;;;;;;;;;5073555;28;20016;-79
2023/04/28 02:22:25;;;;;;;14.27;9.63;;;;;;;;;;5071767;28;20013;-78
2023/04/28 02:24:51;;;;;;;15.10;8.93;;;;;;;;;;5073424;28;20036;-78
2023/04/28 02:27:17;;;;;;;17.50;9.57;;;;;;;;;;5057242;28;20027;-79
2023/04/28 02:29:43;;;;;;;15.33;9.37;;;;;;;;;;5054894;28;20025;-80
2023/04/28 02:32:12;;;;;;;21.53;10.07;;;;;;;;;;5056530;28;20025;-80
2023/04/28 02:34:38;;;;;;;21.97;11.30;;;;;;;;;;5053292;28;20036;-79
2023/04/28 02:37:07;;;;;;;14.40;10.77;;;;;;;;;;5073463;28;20029;-78
2023/04/28 02:39:35;;;;;;;21.37;11.97;;;;;;;;;;5054289;28;20044;-80
2023/04/28 02:42:04;;;;;;;14.23;10.73;;;;;;;;;;5055574;28;20104;-80
2023/04/28 02:44:30;;;;;;;20.13;11.37;;;;;;;;;;5072016;28;20032;-80
2023/04/28 02:46:56;;;;;;;20.50;11.90;;;;;;;;;;5057799;28;20032;-78
2023/04/28 02:49:22;;;;;;;22.77;12.50;;;;;;;;;;5073110;28;20088;-78
2023/04/28 02:51:54;;;;;;;15.90;12.13;;;;;;;;;;5071000;28;20032;-80
2023/04/28 02:54:26;;;;;;;20.13;11.73;;;;;;;;;;5071755;28;20047;-79
2023/04/28 02:56:53;;;;;;;14.32;9.40;;;;;;;;;;5070231;28;20100;-81
2023/04/28 02:59:19;;;;;;;17.57;10.63;;;;;;;;;;5054243;28;20017;-80
2023/04/28 03:01:45;;;;;;;15.10;9.70;;;;;;;;;;5053504;28;20060;-79
2023/04/28 03:04:11;;;;;;;17.67;9.33;;;;;;;;;;5051396;28;20027;-80
2023/04/28 03:06:42;;;;;;;14.57;8.83;;;;;;;;;;5070434;28;20017;-79
2023/04/28 03:09:11;;;;;;;17.97;9.83;;;;;;;;;;5069482;28;20029;-79
2023/04/28 03:11:37;;;;;;;17.33;10.50;;;;;;;;;;5072433;28;20017;-78
2023/04/28 03:14:03;;;;;;;18.57;10.97;;;;;;;;;;5071140;28;20038;-80
2023/04/28 03:16:29;;;;;;;21.30;11.33;;;;;;;;;;5069416;28;20147;-81
2023/04/28 03:18:58;;;;;;;19.23;10.90;;;;;;;;;;5073083;28;20051;-79
2023/04/28 03:21:26;;;;;;;14.33;8.67;;;;;;;;;;5055000;28;20025;-79
2023/04/28 03:23:52;;;;;;;16.13;9.77;;;;;;;;;;5070940;28;20017;-78
2023/04/28 03:26:18;;;;;;;18.93;10.27;;;;;;;;;;5053609;28;20041;-81
2023/04/28 03:28:47;;;;;;;15.10;9.10;;;;;;;;;;5052223;28;20045;-78
2023/04/28 03:31:25;;;;;;;15.80;9.40;;;;;;;;;;5052572;28;20037;-79
2023/04/28 03:33:54;;;;;;;16.57;8.63;;;;;;;;;;5053749;28;20033;-79
2023/04/28 03:36:22;;;;;;;15.23;9.40;;;;;;;;;;5071126;28;20037;-79
2023/04/28 03:38:51;;;;;;;20.43;10.10;;;;;;;;;;5051714;28;20032;-79
2023/04/28 03:41:26;;;;;;;21.53;14.03;;;;;;;;;;5053886;28;20013;-80
2023/04/28 03:43:55;;;;;;;20.60;15.40;;;;;;;;;;5071485;28;20044;-78
2023/04/28 03:46:23;;;;;;;30.03;17.07;;;;;;;;;;5051744;28;20025;-81
2023/04/28 03:48:52;;;;;;;34.83;19.63;;;;;;;;;;5058446;28;20032;-80
2023/04/28 03:51:18;;;;;;;47.43;22.67;;;;;;;;;;5072120;28;20013;-80
2023/04/28 03:53:44;;;;;;;48.50;23.03;;;;;;;;;;5072006;28;20048;-79
2023/04/28 03:56:14;;;;;;;58.27;26.83;;;;;;;;;;5072388;28;20025;-79
2023/04/28 03:58:40;;;;;;;59.00;29.80;;;;;;;;;;5054044;28;20025;-79
2023/04/28 04:01:06;;;;;;;52.93;27.73;;;;;;;;;;5070550;28;20021;-81
2023/04/28 04:03:35;;;;;;;70.57;31.27;;;;;;;;;;5071669;28;20076;-79
2023/04/28 04:06:01;;;;;;;69.87;31.70;;;;;;;;;;5072672;28;20025;-79
2023/04/28 04:08:31;;;;;;;56.53;28.00;;;;;;;;;;5057843;28;20021;-80
2023/04/28 04:10:57;;;;;;;63.13;29.43;;;;;;;;;;5070766;28;20029;-78
2023/04/28 04:13:23;;;;;;;65.70;32.33;;;;;;;;;;5078586;28;20014;-79
2023/04/28 04:15:49;;;;;;;71.47;31.13;;;;;;;;;;5058730;28;20080;-79
2023/04/28 04:18:15;;;;;;;71.67;30.03;;;;;;;;;;5075375;28;20019;-80
2023/04/28 04:20:43;;;;;;;69.47;30.83;;;;;;;;;;5078413;28;20013;-79
2023/04/28 04:23:10;;;;;;;73.03;31.53;;;;;;;;;;5061813;28;20028;-79
2023/04/28 04:25:43;;;;;;;74.13;30.60;;;;;;;;;;5058630;28;20055;-79
2023/04/28 04:28:09;;;;;;;60.10;29.77;;;;;;;;;;5058800;28;20021;-80
2023/04/28 04:30:38;;;;;;;49.70;26.53;;;;;;;;;;5058646;28;20033;-81
2023/04/28 04:33:09;;;;;;;71.93;32.17;;;;;;;;;;5059361;28;20021;-80
2023/04/28 04:35:39;;;;;;;54.97;28.40;;;;;;;;;;5072827;28;20024;-79
2023/04/28 04:38:13;;;;;;;66.40;31.17;;;;;;;;;;5077936;28;20013;-79
2023/04/28 04:40:41;;;;;;;58.57;29.00;;;;;;;;;;5074961;28;20029;-78
2023/04/28 04:43:07;;;;;;;62.33;30.70;;;;;;;;;;5059389;28;20258;-79
2023/04/28 04:45:33;;;;;;;41.87;24.83;;;;;;;;;;5077627;28;20163;-78
2023/04/28 04:47:59;;;;;;;55.40;27.83;;;;;;;;;;5076246;28;20092;-79
2023/04/28 04:50:28;;;;;;;57.53;26.50;;;;;;;;;;5074598;28;20017;-79
2023/04/28 04:52:57;;;;;;;49.00;26.87;;;;;;;;;;5075793;28;20020;-81
2023/04/28 04:55:38;;;;;;;54.37;24.03;;;;;;;;;;5078118;28;20020;-80
2023/04/28 04:58:04;;;;;;;48.90;25.60;;;;;;;;;;5059991;28;20040;-81
2023/04/28 05:00:31;;;;;;;50.43;25.80;;;;;;;;;;5075036;28;20213;-83
2023/04/28 05:02:57;;;;;;;54.50;27.57;;;;;;;;;;5077733;28;20024;-79
2023/04/28 05:05:28;;;;;;;47.77;26.70;;;;;;;;;;5056970;28;20036;-79
2023/04/28 05:07:54;;;;;;;42.42;23.75;;;;;;;;;;5057769;28;20025;-81
2023/04/28 05:10:21;;;;;;;35.67;18.60;;;;;;;;;;5060547;28;20009;-80
2023/04/28 05:12:53;;;;;;;39.60;22.07;;;;;;;;;;5076318;28;20017;-80
2023/04/28 05:15:19;;;;;;;44.83;21.95;;;;;;;;;;5075623;28;20217;-80
2023/04/28 05:17:45;;;;;;;40.23;21.80;;;;;;;;;;5074243;28;20043;-81
2023/04/28 05:20:11;;;;;;;36.07;19.47;;;;;;;;;;5073386;28;20037;-82
2023/04/28 05:22:37;;;;;;;38.07;21.20;;;;;;;;;;5073827;28;20037;-79
2023/04/28 05:25:03;;;;;;;31.67;18.47;;;;;;;;;;5055379;28;20075;-78
2023/04/28 05:27:29;;;;;;;32.33;18.73;;;;;;;;;;5073020;28;20037;-80
2023/04/28 05:29:55;;;;;;;33.77;19.70;;;;;;;;;;5073947;28;20013;-79
2023/04/28 05:32:25;;;;;;;26.47;16.47;;;;;;;;;;5074241;28;20051;-79
2023/04/28 05:34:53;;;;;;;35.60;18.37;;;;;;;;;;5055175;28;20028;-80
2023/04/28 05:37:21;;;;;;;35.53;18.93;;;;;;;;;;5075556;28;20009;-79
2023/04/28 05:39:47;;;;;;;32.47;18.97;;;;;;;;;;5071997;28;20040;-81
2023/04/28 05:42:16;;;;;;;29.10;17.50;;;;;;;;;;5073039;28;20132;-80
2023/04/28 05:44:42;;;;;;;26.77;16.40;;;;;;;;;;5058438;28;20037;-80
2023/04/28 05:47:11;;;;;;;27.67;16.43;;;;;;;;;;5072317;28;20034;-79
2023/04/28 05:49:37;;;;;;;21.93;16.80;;;;;;;;;;5056642;28;20025;-79
2023/04/28 05:52:06;;;;;;;24.30;16.70;;;;;;;;;;5073800;28;20045;-79
2023/04/28 05:54:33;;;;;;;26.13;15.47;;;;;;;;;;5072831;28;20025;-79
2023/04/28 05:57:00;;;;;;;24.67;17.77;;;;;;;;;;5071689;28;20084;-81
2023/04/28 05:59:30;;;;;;;27.97;17.43;;;;;;;;;;5059548;28;20028;-80
2023/04/28 06:01:56;;;;;;;22.13;14.17;;;;;;;;;;5072030;28;20040;-80
2023/04/28 06:04:24;;;;;;;24.53;12.73;;;;;;;;;;5054706;28;20021;-81
2023/04/28 06:06:50;;;;;;;23.10;14.90;;;;;;;;;;5072210;28;20013;-80
2023/04/28 06:09:16;;;;;;;16.73;12.93;;;;;;;;;;5070887;28;20029;-80
2023/04/28 06:11:44;;;;;;;23.33;13.77;;;;;;;;;;5073768;28;20025;-79
2023/04/28 06:14:16;;;;;;;19.23;12.47;;;;;;;;;;5055788;28;20013;-80
2023/04/28 06:16:42;;;;;;;18.23;12.73;;;;;;;;;;5054923;28;20496;-81
2023/04/28 06:19:13;;;;;;;18.83;11.67;;;;;;;;;;5071084;28;20041;-80
2023/04/28 06:21:40;;;;;;;16.43;11.83;;;;;;;;;;5071066;28;20320;-79
2023/04/28 06:24:06;;;;;;;18.77;13.40;;;;;;;;;;5058494;28;20017;-80
2023/04/28 06:26:32;;;;;;;20.60;12.00;;;;;;;;;;5071744;28;20048;-81
2023/04/28 06:28:58;;;;;;;19.63;11.60;;;;;;;;;;5054735;28;20017;-80
2023/04/28 06:31:26;;;;;;;19.67;12.60;;;;;;;;;;5055562;28;20044;-80
2023/04/28 06:33:54;;;;;;;18.57;12.60;;;;;;;;;;5054960;28;20040;-80
2023/04/28 06:36:25;;;;;;;21.23;12.43;;;;;;;;;;5070306;28;20005;-78
2023/04/28 06:38:59;;;;;;;22.97;12.30;;;;;;;;;;5059157;28;20021;-80
2023/04/28 06:41:29;;;;;;;17.67;13.10;;;;;;;;;;5073866;28;20029;-80
2023/04/28 06:43:55;;;;;;;16.87;10.90;;;;;;;;;;5051715;28;20024;-80
2023/04/28 06:46:21;;;;;;;16.23;10.20;;;;;;;;;;5074188;28;20050;-80
2023/04/28 06:48:53;;;;;;;19.43;11.23;;;;;;;;;;5073547;28;20080;-80
2023/04/28 06:51:22;;;;;;;12.82;10.18;;;;;;;;;;5062052;28;20017;-81
2023/04/28 06:53:51;;;;;;;18.73;10.10;;;;;;;;;;5071591;28;20085;-80
2023/04/28 06:56:26;;;;;;;11.80;8.33;;;;;;;;;;5054802;28;20032;-83
2023/04/28 06:58:52;;;;;;;16.30;9.57;;;;;;;;;;5054236;28;20009;-80
2023/04/28 07:01:18;;;;;;;18.23;9.00;;;;;;;;;;5053698;28;20139;-78
2023/04/28 07:03:49;;;;;;;14.37;9.07;;;;;;;;;;5072659;28;20071;-80
2023/04/28 07:06:18;;;;;;;12.73;7.67;;;;;;;;;;5073177;28;20040;-80
2023/04/28 07:08:45;;;;;;;14.13;9.37;;;;;;;;;;5072333;28;20037;-80
2023/04/28 07:11:15;;;;;;;15.10;8.47;;;;;;;;;;5054961;28;20048;-81
2023/04/28 07:13:41;;;;;;;10.17;7.80;;;;;;;;;;5073232;28;20041;-81
2023/04/28 07:16:09;;;;;;;13.20;8.43;;;;;;;;;;5052253;28;20022;-80
2023/04/28 07:18:35;;;;;;;16.20;8.93;;;;;;;;;;5072229;28;20024;-79
2023/04/28 07:21:03;;;;;;;13.47;8.60;;;;;;;;;;5055652;28;20025;-80
2023/04/28 07:23:30;;;;;;;13.10;8.20;;;;;;;;;;5074631;28;20025;-80
2023/04/28 07:25:57;;;;;;;11.20;8.37;;;;;;;;;;5068116;28;20108;-79
2023/04/28 07:28:26;;;;;;;14.37;8.33;;;;;;;;;;5069257;28;20017;-80
2023/04/28 07:30:52;;;;;;;15.47;9.23;;;;;;;;;;5056408;28;20063;-80
2023/04/28 07:33:18;;;;;;;15.43;8.97;;;;;;;;;;5073179;28;20029;-80
2023/04/28 07:35:44;;;;;;;13.70;8.47;;;;;;;;;;5072632;28;20293;-79
2023/04/28 07:38:10;;;;;;;14.20;8.63;;;;;;;;;;5069335;28;20021;-81
2023/04/28 07:40:39;;;;;;;15.50;8.70;;;;;;;;;;5054281;28;20025;-80
2023/04/28 07:43:06;;;;;;;14.07;7.93;;;;;;;;;;5051656;28;20062;-81
2023/04/28 07:45:32;;;;;;;14.03;8.00;;;;;;;;;;5070841;28;20044;-80
2023/04/28 07:48:01;;;;;;;17.60;7.87;;;;;;;;;;5072331;28;20046;-81
2023/04/28 07:50:27;;;;;;;14.10;7.63;;;;;;;;;;5053408;28;20028;-79
2023/04/28 07:52:53;;;;;;;17.07;9.37;;;;;;;;;;5071905;28;20025;-79
2023/04/28 07:55:19;;;;;;;12.40;9.00;;;;;;;;;;5054826;28;20021;-80
2023/04/28 07:57:45;;;;;;;14.13;8.47;;;;;;;;;;5051356;28;20033;-80
2023/04/28 08:00:18;;;;;;;10.90;7.63;;;;;;;;;;5053399;28;20025;-80
2023/04/28 08:02:44;;;;;;;10.33;7.80;;;;;;;;;;5069399;28;20041;-81
2023/04/28 08:05:12;;;;;;;13.63;8.07;;;;;;;;;;5054176;28;20048;-79
2023/04/28 08:07:41;;;;;;;15.40;8.63;;;;;;;;;;5053516;28;20033;-80
2023/04/28 08:10:08;;;;;;;15.40;8.17;;;;;;;;;;5048652;28;20021;-80
2023/04/28 08:12:35;;;;;;;13.63;8.07;;;;;;;;;;5069128;28;20039;-80
2023/04/28 08:15:01;;;;;;;17.00;10.37;;;;;;;;;;5052477;28;20033;-80
2023/04/28 08:17:27;;;;;;;14.57;8.23;;;;;;;;;;5070263;28;20017;-80
2023/04/28 08:19:59;;;;;;;12.57;7.70;;;;;;;;;;5055088;28;20061;-80
2023/04/28 08:22:27;;;;;;;12.18;7.93;;;;;;;;;;5053465;28;20029;-79
2023/04/28 08:24:53;;;;;;;13.43;7.68;;;;;;;;;;5053333;28;20049;-80
2023/04/28 08:27:24;;;;;;;14.75;7.85;;;;;;;;;;5054473;28;20013;-81
2023/04/28 08:29:51;;;;;;;13.05;8.43;;;;;;;;;;5053415;28;20033;-81
2023/04/28 08:32:17;;;;;;;11.95;8.15;;;;;;;;;;5068715;28;20104;-80
2023/04/28 08:34:43;;;;;;;14.73;7.70;;;;;;;;;;5053522;28;20013;-80
2023/04/28 08:37:09;;;;;;;14.48;8.30;;;;;;;;;;5070089;28;20013;-80
2023/04/28 08:39:36;;;;;;;11.73;7.68;;;;;;;;;;5052524;28;20302;-79
2023/04/28 08:42:08;;;;;;;10.23;8.13;;;;;;;;;;5053485;28;20010;-80
2023/04/28 08:44:38;;;;;;;11.07;8.27;;;;;;;;;;5069797;28;20037;-79
2023/04/28 08:47:08;;;;;;;11.95;7.95;;;;;;;;;;5052079;28;20072;-79
2023/04/28 08:49:41;;;;;;;16.25;9.02;;;;;;;;;;5070925;28;20032;-80
2023/04/28 08:52:09;;;;;;;;;;;;;;;;;;5050544;28;20017;-79
2023/04/28 08:54:35;;;;;;;11.85;8.82;;;;;;;;;;5056059;28;19901;-80
2023/04/28 08:57:04;;;;;;;10.32;7.90;;;;;;;;;;5053472;28;20017;-79
2023/04/28 08:59:30;;;;;;;18.33;9.07;;;;;;;;;;5054763;28;20029;-80
2023/04/28 09:01:59;;;;;;;16.00;8.80;;;;;;;;;;5057045;28;20093;-80
2023/04/28 09:04:25;;;;;;;14.43;9.70;;;;;;;;;;5055691;28;20100;-80
2023/04/28 09:06:54;;;;;;;19.50;10.20;;;;;;;;;;5056300;28;20039;-79
2023/04/28 09:09:24;;;;;;;15.45;11.02;;;;;;;;;;5056446;28;20017;-80
2023/04/28 09:11:51;;;;;;;16.20;11.10;;;;;;;;;;5072237;28;20086;-79
2023/04/28 09:14:19;;;;;;;14.70;11.10;;;;;;;;;;5073124;28;20033;-79
2023/04/28 09:16:45;;;;;;;18.05;12.85;;;;;;;;;;5056472;28;20096;-80
2023/04/28 09:19:11;;;;;;;20.27;13.13;;;;;;;;;;5056149;28;20114;-80
2023/04/28 09:21:56;;;;;;;19.47;15.20;;;;;;;;;;5072714;28;20017;-80
2023/04/28 09:24:32;;;;;;;20.30;15.17;;;;;;;;;;5073113;28;20025;-80
2023/04/28 09:26:59;;;;;;;24.13;16.97;;;;;;;;;;5072819;28;20027;-79
2023/04/28 09:29:25;;;;;;;26.03;17.70;;;;;;;;;;5056251;28;20026;-80
2023/04/28 09:31:52;;;;;;;34.10;17.10;;;;;;;;;;5073209;28;20028;-79
2023/04/28 09:34:18;;;;;;;24.37;17.23;;;;;;;;;;5061585;28;20241;-80
2023/04/28 09:36:44;;;;;;;24.33;16.93;;;;;;;;;;5071627;28;20142;-79
2023/04/28 09:39:11;;;;;;;24.50;14.97;;;;;;;;;;5071947;28;20032;-82
2023/04/28 09:41:46;;;;;;;20.80;15.50;;;;;;;;;;5073204;28;20055;-79
2023/04/28 09:44:17;;;;;;;26.10;14.53;;;;;;;;;;5055001;28;20084;-79
2023/04/28 09:46:44;;;;;;;19.83;15.33;;;;;;;;;;5070505;28;20037;-80
2023/04/28 09:49:10;;;;;;;24.03;16.73;;;;;;;;;;5053701;28;20060;-82
2023/04/28 09:51:39;;;;;;;27.27;18.63;;;;;;;;;;5072157;28;20029;-80
2023/04/28 09:54:08;;;;;;;28.23;19.43;;;;;;;;;;5055075;28;20032;-81
2023/04/28 09:56:38;;;;;;;30.90;19.87;;;;;;;;;;5070282;28;20034;-79
2023/04/28 09:59:04;;;;;;;26.73;19.17;;;;;;;;;;5054590;28;20057;-79
2023/04/28 10:01:32;;;;;;;30.63;21.03;;;;;;;;;;5071125;28;20151;-79
2023/04/28 10:04:01;;;;;;;37.30;23.37;;;;;;;;;;5055544;28;20025;-79
2023/04/28 10:06:28;;;;;;;34.83;21.63;;;;;;;;;;5055351;28;20055;-80
2023/04/28 10:08:56;;;;;;;38.83;23.63;;;;;;;;;;5053127;28;20051;-79
2023/04/28 10:11:24;;;;;;;32.07;22.73;;;;;;;;;;5058815;28;20017;-80
2023/04/28 10:13:50;;;;;;;31.10;23.47;;;;;;;;;;5069643;28;20032;-80
2023/04/28 10:16:17;;;;;;;44.73;25.60;;;;;;;;;;5072546;28;20143;-80
2023/04/28 10:18:44;;;;;;;41.07;28.23;;;;;;;;;;5069582;28;20036;-80
2023/04/28 10:21:12;;;;;;;30.73;23.80;;;;;;;;;;5054480;28;20017;-79
2023/04/28 10:23:58;;;;;;;35.47;25.05;;;;;;;;;;5055887;28;20024;-80
2023/04/28 10:26:33;;;;;;;26.88;22.35;;;;;;;;;;5054141;28;20100;-78
2023/04/28 10:28:59;;;;;;;33.70;22.80;;;;;;;;;;5060608;28;20039;-81
2023/04/28 10:31:25;;;;;;;28.90;21.13;;;;;;;;;;5072404;28;20037;-81
2023/04/28 10:33:51;;;;;;;27.13;20.60;;;;;;;;;;5071666;28;20047;-80
2023/04/28 10:36:37;;;;;;;28.45;20.60;;;;;;;;;;5072134;28;20040;-80
2023/04/28 10:39:13;;;;;;;27.40;19.30;;;;;;;;;;5055359;28;20021;-80
2023/04/28 10:41:39;;;;;;;31.65;20.73;;;;;;;;;;5056020;28;20037;-79
2023/04/28 10:44:24;;;;;;;31.73;22.00;;;;;;;;;;5073034;28;20032;-78
2023/04/28 10:47:00;;;;;;;21.40;18.40;;;;;;;;;;5070960;28;20041;-80
2023/04/28 10:49:47;;;;;;;21.85;14.77;;;;;;;;;;5054149;28;20029;-79
2023/04/28 10:52:32;;;;;;;18.88;14.23;;;;;;;;;;5049525;28;20025;-80
2023/04/28 10:55:17;;;;;;;15.13;12.82;;;;;;;;;;5052133;28;20041;-80
2023/04/28 10:57:43;;;;;;;16.92;13.65;;;;;;;;;;5070656;28;20060;-79
2023/04/28 11:00:28;;;;;;;16.50;10.88;;;;;;;;;;5068941;28;20027;-80
2023/04/28 11:02:54;;;;;;;11.50;9.75;;;;;;;;;;5071137;28;20047;-79
2023/04/28 11:05:20;;;;;;;16.85;11.15;;;;;;;;;;5072213;28;20021;-81
2023/04/28 11:08:05;;;;;;;14.38;11.80;;;;;;;;;;5071715;28;20026;-79
2023/04/28 11:11:06;;;;;;;13.48;9.30;;;;;;;;;;5070789;28;20052;-77
2023/04/28 11:13:33;;;;;;;12.18;6.85;;;;;;;;;;5052963;28;20033;-77
2023/04/28 11:16:08;;;;;;;10.23;7.30;;;;;;;;;;5056781;28;20021;-80
2023/04/28 11:18:51;;;;;;;12.07;8.60;;;;;;;;;;5071066;28;20105;-80
2023/04/28 11:21:22;;;;;;;12.65;8.48;;;;;;;;;;5071473;28;20017;-78
2023/04/28 11:23:48;;;;;;;9.75;7.32;;;;;;;;;;5054427;28;20017;-80
2023/04/28 11:26:15;;;;;;;8.07;6.05;;;;;;;;;;5071091;28;20044;-79
2023/04/28 11:28:53;;;;;;;7.85;6.82;;;;;;;;;;5049840;28;20037;-77
2023/04/28 11:31:23;;;;;;;8.65;6.90;;;;;;;;;;5054547;28;20037;-78
2023/04/28 11:33:52;;;;;;;8.65;7.03;;;;;;;;;;5069700;28;20025;-77
2023/04/28 11:36:28;;;;;;;8.02;5.60;;;;;;;;;;5050399;28;20017;-78
2023/04/28 11:38:55;;;;;;;6.63;5.78;;;;;;;;;;5067673;28;20036;-77
2023/04/28 11:41:21;;;;;;;11.43;5.88;;;;;;;;;;5051543;28;20026;-79
2023/04/28 11:43:47;;;;;;;5.82;5.22;;;;;;;;;;5053661;28;20033;-77
2023/04/28 11:46:20;;;;;;;6.70;5.45;;;;;;;;;;5052112;28;20037;-78
2023/04/28 11:48:47;;;;;;;6.07;5.47;;;;;;;;;;5069729;28;20051;-79
2023/04/28 11:51:33;;;;;;;5.57;4.85;;;;;;;;;;5070113;28;20028;-77
2023/04/28 11:54:00;;;;;;;7.13;4.57;;;;;;;;;;5071338;28;20032;-79
2023/04/28 11:56:26;;;;;;;5.68;5.18;;;;;;;;;;5054908;28;20031;-78
2023/04/28 11:59:09;;;;;;;9.48;5.97;;;;;;;;;;5056221;28;20059;-78
2023/04/28 12:01:45;;;;;;;8.73;4.88;;;;;;;;;;5070677;28;20025;-79
2023/04/28 12:04:11;;;;;;;7.32;4.88;;;;;;;;;;5071812;28;20020;-79
2023/04/28 12:06:38;;;;;;;5.28;4.45;;;;;;;;;;5070701;28;20052;-80
2023/04/28 12:09:20;;;;;;;5.60;4.30;;;;;;;;;;5070010;28;20038;-78
2023/04/28 12:11:56;;;;;;;7.83;4.50;;;;;;;;;;5050050;28;20025;-77
2023/04/28 12:14:22;;;;;;;5.28;4.15;;;;;;;;;;5063343;28;20020;-77
2023/04/28 12:16:49;;;;;;;8.25;5.50;;;;;;;;;;5046783;28;20025;-78
2023/04/28 12:19:16;;;;;;;5.32;4.00;;;;;;;;;;5051238;28;20021;-77
2023/04/28 12:21:42;;;;;;;7.20;4.47;;;;;;;;;;5065023;28;20037;-78
2023/04/28 12:24:18;;;;;;;6.70;4.50;;;;;;;;;;5048966;28;20111;-78
2023/04/28 12:26:44;;;;;;;5.28;4.78;;;;;;;;;;5064601;28;20037;-78
2023/04/28 12:29:30;;;;;;;4.35;3.95;;;;;;;;;;5047429;28;20033;-79
2023/04/28 12:31:56;;;;;;;4.45;4.05;;;;;;;;;;5070104;28;20104;-78
2023/04/28 12:34:22;;;;;;;5.97;4.13;;;;;;;;;;5071367;28;20055;-77
2023/04/28 12:36:48;;;;;;;5.25;4.78;;;;;;;;;;5058496;28;20048;-78
2023/04/28 12:39:15;;;;;;;4.90;4.28;;;;;;;;;;5056699;28;20041;-78
2023/04/28 12:41:42;;;;;;;4.70;4.28;;;;;;;;;;5072537;28;20088;-84
2023/04/28 12:44:11;;;;;;;9.00;4.75;;;;;;;;;;5053672;28;20120;-80
2023/04/28 12:46:37;;;;;;;8.68;5.78;;;;;;;;;;5054136;28;20036;-79
2023/04/28 12:49:03;;;;;;;6.07;5.47;;;;;;;;;;5049558;28;20032;-81
2023/04/28 12:51:29;;;;;;;7.05;5.82;;;;;;;;;;5033926;28;20056;-80
2023/04/28 12:53:55;;;;;;;9.73;7.28;;;;;;;;;;5047287;28;20104;-80
2023/04/28 12:56:22;;;;;;;8.73;6.80;;;;;;;;;;5065762;28;20052;-78
2023/04/28 12:58:48;;;;;;;11.50;6.82;;;;;;;;;;5056826;28;20209;-77
2023/04/28 13:01:14;;;;;;;8.45;7.20;;;;;;;;;;5056437;28;20040;-78
2023/04/28 13:03:42;;;;;;;8.43;6.82;;;;;;;;;;5042796;28;20055;-80
2023/04/28 13:06:09;;;;;;;10.88;7.90;;;;;;;;;;5048182;28;20029;-77
2023/04/28 13:08:36;;;;;;;13.57;10.15;;;;;;;;;;5054499;28;20044;-80
2023/04/28 13:11:03;;;;;;;11.27;9.38;;;;;;;;;;5053545;28;20037;-81
2023/04/28 13:13:29;;;;;;;9.15;8.20;;;;;;;;;;5032171;28;20629;-78
2023/04/28 13:15:55;;;;;;;11.15;9.88;;;;;;;;;;5043029;28;20040;-82
2023/04/28 13:18:22;;;;;;;10.40;8.82;;;;;;;;;;5071735;28;20043;-80
2023/04/28 13:20:48;;;;;;;9.35;6.60;;;;;;;;;;5071075;28;20021;-77
2023/04/28 13:23:14;;;;;;;9.95;7.55;;;;;;;;;;5072433;28;20148;-81
2023/04/28 13:25:43;;;;;;;10.88;8.27;;;;;;;;;;5074651;28;20021;-81
2023/04/28 13:28:09;;;;;;;8.70;7.82;;;;;;;;;;5074493;28;20028;-79
2023/04/28 13:30:35;;;;;;;10.50;9.43;;;;;;;;;;5059227;28;20029;-79
2023/04/28 13:33:01;;;;;;;8.43;7.63;;;;;;;;;;5055071;28;20029;-79
2023/04/28 13:35:27;;;;;;;8.98;8.05;;;;;;;;;;5052446;28;20033;-80
2023/04/28 13:38:00;;;;;;;7.65;6.88;;;;;;;;;;5058608;28;20028;-77
2023/04/28 13:40:26;;;;;;;10.43;8.20;;;;;;;;;;5069711;28;20026;-79
2023/04/28 13:42:52;;;;;;;6.93;6.22;;;;;;;;;;5051289;28;20330;-79
2023/04/28 13:45:19;;;;;;;7.70;6.10;;;;;;;;;;5049626;28;20039;-79
2023/04/28 13:47:45;;;;;;;5.93;5.03;;;;;;;;;;5050765;28;20518;-77
2023/04/28 13:50:11;;;;;;;6.97;5.05;;;;;;;;;;5071349;28;20104;-76
2023/04/28 13:52:37;;;;;;;4.68;4.22;;;;;;;;;;5055095;28;20025;-77
2023/04/28 13:55:03;;;;;;;3.47;2.97;;;;;;;;;;5050328;28;20036;-77
2023/04/28 13:57:29;;;;;;;3.55;2.67;;;;;;;;;;5053624;28;20035;-78
2023/04/28 13:59:55;;;;;;;4.13;2.30;;;;;;;;;;5069019;28;20078;-77
2023/04/28 14:02:22;;;;;;;3.17;2.63;;;;;;;;;;5050519;28;20032;-77
2023/04/28 14:04:49;;;;;;;4.65;2.00;;;;;;;;;;5048884;28;20076;-76
2023/04/28 14:07:15;;;;;;;1.55;1.27;;;;;;;;;;5049906;28;20045;-78
2023/04/28 14:09:41;;;;;;;3.30;1.50;;;;;;;;;;5064707;28;20032;-77
2023/04/28 14:12:07;;;;;;;2.90;0.82;;;;;;;;;;5048634;28;20044;-77
2023/04/28 14:14:33;;;;;;;1.02;0.80;;;;;;;;;;5058832;28;20100;-81
2023/04/28 14:17:00;;;;;;;2.70;1.35;;;;;;;;;;5072719;28;20075;-79
2023/04/28 14:19:26;;;;;;;2.45;1.63;;;;;;;;;;5055281;28;20025;-80
2023/04/28 14:21:53;;;;;;;3.53;1.65;;;;;;;;;;5073938;28;20012;-81
2023/04/28 14:24:19;;;;;;;2.25;1.83;;;;;;;;;;5053495;28;20029;-77
2023/04/28 14:26:46;;;;;;;4.43;1.83;;;;;;;;;;5058391;28;20052;-81
2023/04/28 14:29:12;;;;;;;2.67;1.15;;;;;;;;;;5056668;28;20021;-79
2023/04/28 14:31:38;;;;;;;1.75;0.90;;;;;;;;;;5055223;28;20017;-81
2023/04/28 14:34:05;;;;;;;2.25;0.98;;;;;;;;;;5070542;28;20029;-79
2023/04/28 14:36:37;;;;;;;2.20;1.00;;;;;;;;;;5055656;28;20039;-81
2023/04/28 14:39:03;;;;;;;1.70;0.90;;;;;;;;;;5055848;28;20049;-81